sensor_id;sensor_type;location;lat;lon;timestamp;temperature;humidity
74488;DHT22;63019;51.080;13.642;2023-06-22T00:00:07;21.20;99.90
74488;DHT22;63019;51.080;13.642;2023-06-22T00:01:13;21.20;99.90
74488;DHT22;63019;51.080;13.642;2023-06-22T00:02:15;21.20;99.90
74488;DHT22;63019;51.080;13.642;2023-06-22T00:03:18;21.20;99.90
74488;DHT22;63019;51.080;13.642;2023-06-22T00:04:20;21.20;99.90
74488;DHT22;63019;51.080;13.642;2023-06-22T00:05:22;21.20;99.90
74488;DHT22;63019;51.080;13.642;2023-06-22T00:06:24;21.20;99.90
74488;DHT22;63019;51.080;13.642;2023-06-22T00:07:26;21.20;99.90
74488;DHT22;63019;51.080;13.642;2023-06-22T00:08:27;21.20;99.90
74488;DHT22;63019;51.080;13.642;2023-06-22T00:09:30;21.20;99.90
74488;DHT22;63019;51.080;13.642;2023-06-22T00:10:32;21.20;99.90
74488;DHT22;63019;51.080;13.642;2023-06-22T00:11:34;21.20;99.90
74488;DHT22;63019;51.080;13.642;2023-06-22T00:12:36;21.10;99.90
74488;DHT22;63019;51.080;13.642;2023-06-22T00:13:39;21.10;99.90
74488;DHT22;63019;51.080;13.642;2023-06-22T00:14:40;21.10;99.90
74488;DHT22;63019;51.080;13.642;2023-06-22T00:15:42;21.10;99.90
74488;DHT22;63019;51.080;13.642;2023-06-22T00:16:44;21.00;99.90
74488;DHT22;63019;51.080;13.642;2023-06-22T00:17:50;21.00;99.90
74488;DHT22;63019;51.080;13.642;2023-06-22T00:18:52;20.90;99.90
74488;DHT22;63019;51.080;13.642;2023-06-22T00:19:56;20.80;99.90
74488;DHT22;63019;51.080;13.642;2023-06-22T00:21:00;20.90;99.90
74488;DHT22;63019;51.080;13.642;2023-06-22T00:22:02;20.80;99.90
74488;DHT22;63019;51.080;13.642;2023-06-22T00:23:06;20.80;99.90
74488;DHT22;63019;51.080;13.642;2023-06-22T00:24:11;20.70;99.90
74488;DHT22;63019;51.080;13.642;2023-06-22T00:25:13;20.70;99.90
74488;DHT22;63019;51.080;13.642;2023-06-22T00:26:15;20.70;99.90
74488;DHT22;63019;51.080;13.642;2023-06-22T00:27:17;20.70;99.90
74488;DHT22;63019;51.080;13.642;2023-06-22T00:28:19;20.60;99.90
74488;DHT22;63019;51.080;13.642;2023-06-22T00:29:20;20.60;99.90
74488;DHT22;63019;51.080;13.642;2023-06-22T00:30:25;20.60;99.90
74488;DHT22;63019;51.080;13.642;2023-06-22T00:31:28;20.60;99.90
74488;DHT22;63019;51.080;13.642;2023-06-22T00:32:30;20.60;99.90
74488;DHT22;63019;51.080;13.642;2023-06-22T00:33:32;20.60;99.90
74488;DHT22;63019;51.080;13.642;2023-06-22T00:34:34;20.70;99.90
74488;DHT22;63019;51.080;13.642;2023-06-22T00:35:35;20.70;99.90
74488;DHT22;63019;51.080;13.642;2023-06-22T00:36:37;20.70;99.90
74488;DHT22;63019;51.080;13.642;2023-06-22T00:37:42;20.70;99.90
74488;DHT22;63019;51.080;13.642;2023-06-22T00:38:44;20.70;99.90
74488;DHT22;63019;51.080;13.642;2023-06-22T00:39:46;20.70;99.90
74488;DHT22;63019;51.080;13.642;2023-06-22T00:40:48;20.70;99.90
74488;DHT22;63019;51.080;13.642;2023-06-22T00:41:49;20.70;99.90
74488;DHT22;63019;51.080;13.642;2023-06-22T00:42:51;20.70;99.90
74488;DHT22;63019;51.080;13.642;2023-06-22T00:43:53;20.70;99.90
74488;DHT22;63019;51.080;13.642;2023-06-22T00:44:55;20.60;99.90
74488;DHT22;63019;51.080;13.642;2023-06-22T00:45:57;20.70;99.90
74488;DHT22;63019;51.080;13.642;2023-06-22T00:46:58;20.70;99.90
74488;DHT22;63019;51.080;13.642;2023-06-22T00:48:02;20.60;99.90
74488;DHT22;63019;51.080;13.642;2023-06-22T00:49:05;20.60;99.90
74488;DHT22;63019;51.080;13.642;2023-06-22T00:50:07;20.60;99.90
74488;DHT22;63019;51.080;13.642;2023-06-22T00:51:11;20.60;99.90
74488;DHT22;63019;51.080;13.642;2023-06-22T00:52:13;20.50;99.90
74488;DHT22;63019;51.080;13.642;2023-06-22T00:53:22;20.60;99.90
74488;DHT22;63019;51.080;13.642;2023-06-22T00:54:24;20.60;99.90
74488;DHT22;63019;51.080;13.642;2023-06-22T00:55:26;20.60;99.90
74488;DHT22;63019;51.080;13.642;2023-06-22T00:56:29;20.60;99.90
74488;DHT22;63019;51.080;13.642;2023-06-22T00:57:32;20.60;99.90
74488;DHT22;63019;51.080;13.642;2023-06-22T00:58:35;20.60;99.90
74488;DHT22;63019;51.080;13.642;2023-06-22T00:59:37;20.60;99.90
74488;DHT22;63019;51.080;13.642;2023-06-22T01:00:41;20.60;99.90
74488;DHT22;63019;51.080;13.642;2023-06-22T01:01:44;20.60;99.90
74488;DHT22;63019;51.080;13.642;2023-06-22T01:02:46;20.60;99.90
74488;DHT22;63019;51.080;13.642;2023-06-22T01:03:49;20.60;99.90
74488;DHT22;63019;51.080;13.642;2023-06-22T01:04:52;20.60;99.90
74488;DHT22;63019;51.080;13.642;2023-06-22T01:06:06;20.60;99.90
74488;DHT22;63019;51.080;13.642;2023-06-22T01:08:42;20.40;99.90
74488;DHT22;63019;51.080;13.642;2023-06-22T01:09:59;20.40;99.90
74488;DHT22;63019;51.080;13.642;2023-06-22T01:11:28;20.40;99.90
74488;DHT22;63019;51.080;13.642;2023-06-22T01:12:37;20.40;99.90
74488;DHT22;63019;51.080;13.642;2023-06-22T01:16:20;20.40;99.90
74488;DHT22;63019;51.080;13.642;2023-06-22T01:17:24;20.40;99.90
74488;DHT22;63019;51.080;13.642;2023-06-22T01:18:30;20.30;99.90
74488;DHT22;63019;51.080;13.642;2023-06-22T01:19:38;20.30;99.90
74488;DHT22;63019;51.080;13.642;2023-06-22T01:20:43;20.30;99.90
74488;DHT22;63019;51.080;13.642;2023-06-22T01:21:46;20.20;99.90
74488;DHT22;63019;51.080;13.642;2023-06-22T01:23:05;20.10;99.90
74488;DHT22;63019;51.080;13.642;2023-06-22T01:24:24;20.20;99.90
74488;DHT22;63019;51.080;13.642;2023-06-22T01:28:43;20.10;99.90
74488;DHT22;63019;51.080;13.642;2023-06-22T01:29:46;20.10;99.90
74488;DHT22;63019;51.080;13.642;2023-06-22T01:30:49;20.00;99.90
74488;DHT22;63019;51.080;13.642;2023-06-22T01:31:59;20.00;99.90
74488;DHT22;63019;51.080;13.642;2023-06-22T01:33:04;19.90;99.90
74488;DHT22;63019;51.080;13.642;2023-06-22T01:34:07;19.90;99.90
74488;DHT22;63019;51.080;13.642;2023-06-22T01:35:10;19.90;99.90
74488;DHT22;63019;51.080;13.642;2023-06-22T01:36:14;19.80;99.90
74488;DHT22;63019;51.080;13.642;2023-06-22T01:37:17;19.70;99.90
74488;DHT22;63019;51.080;13.642;2023-06-22T01:38:19;19.80;99.90
74488;DHT22;63019;51.080;13.642;2023-06-22T01:39:21;19.70;99.90
74488;DHT22;63019;51.080;13.642;2023-06-22T01:40:24;19.70;99.90
74488;DHT22;63019;51.080;13.642;2023-06-22T01:41:29;19.70;99.90
74488;DHT22;63019;51.080;13.642;2023-06-22T01:42:31;19.80;99.90
74488;DHT22;63019;51.080;13.642;2023-06-22T01:43:34;19.70;99.90
74488;DHT22;63019;51.080;13.642;2023-06-22T01:44:37;19.80;99.90
74488;DHT22;63019;51.080;13.642;2023-06-22T01:45:40;19.80;99.90
74488;DHT22;63019;51.080;13.642;2023-06-22T01:46:42;19.70;99.90
74488;DHT22;63019;51.080;13.642;2023-06-22T01:47:44;19.70;99.90
74488;DHT22;63019;51.080;13.642;2023-06-22T01:48:46;19.70;99.90
74488;DHT22;63019;51.080;13.642;2023-06-22T01:49:49;19.70;99.90
74488;DHT22;63019;51.080;13.642;2023-06-22T01:50:53;19.70;99.90
74488;DHT22;63019;51.080;13.642;2023-06-22T01:51:55;19.70;99.90
74488;DHT22;63019;51.080;13.642;2023-06-22T01:52:57;19.60;99.90
74488;DHT22;63019;51.080;13.642;2023-06-22T01:53:59;19.60;99.90
74488;DHT22;63019;51.080;13.642;2023-06-22T01:55:01;19.60;99.90
74488;DHT22;63019;51.080;13.642;2023-06-22T01:56:04;19.60;99.90
74488;DHT22;63019;51.080;13.642;2023-06-22T01:57:06;19.60;99.90
74488;DHT22;63019;51.080;13.642;2023-06-22T01:58:08;19.50;99.90
74488;DHT22;63019;51.080;13.642;2023-06-22T02:00:36;19.50;99.90
74488;DHT22;63019;51.080;13.642;2023-06-22T02:02:05;19.50;99.90
74488;DHT22;63019;51.080;13.642;2023-06-22T02:03:27;19.50;99.90
74488;DHT22;63019;51.080;13.642;2023-06-22T02:04:38;19.50;99.90
74488;DHT22;63019;51.080;13.642;2023-06-22T02:05:48;19.50;99.90
74488;DHT22;63019;51.080;13.642;2023-06-22T02:06:56;19.60;99.90
74488;DHT22;63019;51.080;13.642;2023-06-22T02:08:11;19.60;99.90
74488;DHT22;63019;51.080;13.642;2023-06-22T02:09:17;19.60;99.90
74488;DHT22;63019;51.080;13.642;2023-06-22T02:10:22;19.50;99.90
74488;DHT22;63019;51.080;13.642;2023-06-22T02:11:26;19.50;99.90
74488;DHT22;63019;51.080;13.642;2023-06-22T02:12:31;19.60;99.90
74488;DHT22;63019;51.080;13.642;2023-06-22T02:13:34;19.60;99.90
74488;DHT22;63019;51.080;13.642;2023-06-22T02:14:36;19.60;99.90
74488;DHT22;63019;51.080;13.642;2023-06-22T02:15:39;19.60;99.90
74488;DHT22;63019;51.080;13.642;2023-06-22T02:16:42;19.60;99.90
74488;DHT22;63019;51.080;13.642;2023-06-22T02:17:44;19.60;99.90
74488;DHT22;63019;51.080;13.642;2023-06-22T02:18:47;19.60;99.90
74488;DHT22;63019;51.080;13.642;2023-06-22T02:19:52;19.60;99.90
74488;DHT22;63019;51.080;13.642;2023-06-22T02:20:54;19.60;99.90
74488;DHT22;63019;51.080;13.642;2023-06-22T02:21:56;19.70;99.90
74488;DHT22;63019;51.080;13.642;2023-06-22T02:22:58;19.70;99.90
74488;DHT22;63019;51.080;13.642;2023-06-22T02:23:59;19.70;99.90
74488;DHT22;63019;51.080;13.642;2023-06-22T02:25:01;19.70;99.90
74488;DHT22;63019;51.080;13.642;2023-06-22T02:26:04;19.60;99.90
74488;DHT22;63019;51.080;13.642;2023-06-22T02:27:06;19.60;99.90
74488;DHT22;63019;51.080;13.642;2023-06-22T02:28:08;19.60;99.90
74488;DHT22;63019;51.080;13.642;2023-06-22T02:29:10;19.60;99.90
74488;DHT22;63019;51.080;13.642;2023-06-22T02:30:13;19.60;99.90
74488;DHT22;63019;51.080;13.642;2023-06-22T02:31:16;19.60;99.90
74488;DHT22;63019;51.080;13.642;2023-06-22T02:32:18;19.60;99.90
74488;DHT22;63019;51.080;13.642;2023-06-22T02:33:20;19.50;99.90
74488;DHT22;63019;51.080;13.642;2023-06-22T02:34:22;19.50;99.90
74488;DHT22;63019;51.080;13.642;2023-06-22T02:35:25;19.50;99.90
74488;DHT22;63019;51.080;13.642;2023-06-22T02:36:27;19.50;99.90
74488;DHT22;63019;51.080;13.642;2023-06-22T02:37:32;19.40;99.90
74488;DHT22;63019;51.080;13.642;2023-06-22T02:38:34;19.40;99.90
74488;DHT22;63019;51.080;13.642;2023-06-22T02:39:37;19.40;99.90
74488;DHT22;63019;51.080;13.642;2023-06-22T02:40:39;19.40;99.90
74488;DHT22;63019;51.080;13.642;2023-06-22T02:41:41;19.40;99.90
74488;DHT22;63019;51.080;13.642;2023-06-22T02:42:43;19.40;99.90
74488;DHT22;63019;51.080;13.642;2023-06-22T02:43:45;19.50;99.90
74488;DHT22;63019;51.080;13.642;2023-06-22T02:44:47;19.40;99.90
74488;DHT22;63019;51.080;13.642;2023-06-22T02:45:49;19.40;99.90
74488;DHT22;63019;51.080;13.642;2023-06-22T02:46:51;19.40;99.90
74488;DHT22;63019;51.080;13.642;2023-06-22T02:47:53;19.40;99.90
74488;DHT22;63019;51.080;13.642;2023-06-22T02:48:55;19.40;99.90
74488;DHT22;63019;51.080;13.642;2023-06-22T02:49:57;19.40;99.90
74488;DHT22;63019;51.080;13.642;2023-06-22T02:50:59;19.40;99.90
74488;DHT22;63019;51.080;13.642;2023-06-22T02:52:00;19.40;99.90
74488;DHT22;63019;51.080;13.642;2023-06-22T02:53:02;19.40;99.90
74488;DHT22;63019;51.080;13.642;2023-06-22T02:54:05;19.30;99.90
74488;DHT22;63019;51.080;13.642;2023-06-22T02:55:07;19.30;99.90
74488;DHT22;63019;51.080;13.642;2023-06-22T02:56:09;19.30;99.90
74488;DHT22;63019;51.080;13.642;2023-06-22T02:57:11;19.30;99.90
74488;DHT22;63019;51.080;13.642;2023-06-22T02:58:15;19.30;99.90
74488;DHT22;63019;51.080;13.642;2023-06-22T02:59:18;19.30;99.90
74488;DHT22;63019;51.080;13.642;2023-06-22T03:00:24;19.40;99.90
74488;DHT22;63019;51.080;13.642;2023-06-22T03:01:32;19.40;99.90
74488;DHT22;63019;51.080;13.642;2023-06-22T03:02:43;19.40;99.90
74488;DHT22;63019;51.080;13.642;2023-06-22T03:03:45;19.40;99.90
74488;DHT22;63019;51.080;13.642;2023-06-22T03:04:48;19.40;99.90
74488;DHT22;63019;51.080;13.642;2023-06-22T03:05:50;19.40;99.90
74488;DHT22;63019;51.080;13.642;2023-06-22T03:06:54;19.40;99.90
74488;DHT22;63019;51.080;13.642;2023-06-22T03:07:56;19.40;99.90
74488;DHT22;63019;51.080;13.642;2023-06-22T03:09:00;19.30;99.90
74488;DHT22;63019;51.080;13.642;2023-06-22T03:10:02;19.30;99.90
74488;DHT22;63019;51.080;13.642;2023-06-22T03:11:04;19.30;99.90
74488;DHT22;63019;51.080;13.642;2023-06-22T03:12:06;19.30;99.90
74488;DHT22;63019;51.080;13.642;2023-06-22T03:13:08;19.30;99.90
74488;DHT22;63019;51.080;13.642;2023-06-22T03:14:10;19.30;99.90
74488;DHT22;63019;51.080;13.642;2023-06-22T03:15:12;19.30;99.90
74488;DHT22;63019;51.080;13.642;2023-06-22T03:16:14;19.30;99.90
74488;DHT22;63019;51.080;13.642;2023-06-22T03:17:16;19.40;99.90
74488;DHT22;63019;51.080;13.642;2023-06-22T03:18:18;19.30;99.90
74488;DHT22;63019;51.080;13.642;2023-06-22T03:19:20;19.30;99.90
74488;DHT22;63019;51.080;13.642;2023-06-22T03:20:23;19.30;99.90
74488;DHT22;63019;51.080;13.642;2023-06-22T03:21:27;19.30;99.90
74488;DHT22;63019;51.080;13.642;2023-06-22T03:22:29;19.30;99.90
74488;DHT22;63019;51.080;13.642;2023-06-22T03:23:31;19.30;99.90
74488;DHT22;63019;51.080;13.642;2023-06-22T03:24:33;19.30;99.90
74488;DHT22;63019;51.080;13.642;2023-06-22T03:25:36;19.30;99.90
74488;DHT22;63019;51.080;13.642;2023-06-22T03:26:38;19.30;99.90
74488;DHT22;63019;51.080;13.642;2023-06-22T03:27:40;19.30;99.90
74488;DHT22;63019;51.080;13.642;2023-06-22T03:28:42;19.30;99.90
74488;DHT22;63019;51.080;13.642;2023-06-22T03:29:44;19.30;99.90
74488;DHT22;63019;51.080;13.642;2023-06-22T03:30:46;19.30;99.90
74488;DHT22;63019;51.080;13.642;2023-06-22T03:31:48;19.30;99.90
74488;DHT22;63019;51.080;13.642;2023-06-22T03:32:50;19.30;99.90
74488;DHT22;63019;51.080;13.642;2023-06-22T03:33:52;19.40;99.90
74488;DHT22;63019;51.080;13.642;2023-06-22T03:34:54;19.30;99.90
74488;DHT22;63019;51.080;13.642;2023-06-22T03:35:56;19.30;99.90
74488;DHT22;63019;51.080;13.642;2023-06-22T03:36:57;19.30;99.90
74488;DHT22;63019;51.080;13.642;2023-06-22T03:37:59;19.30;99.90
74488;DHT22;63019;51.080;13.642;2023-06-22T03:39:01;19.30;99.90
74488;DHT22;63019;51.080;13.642;2023-06-22T03:40:03;19.30;99.90
74488;DHT22;63019;51.080;13.642;2023-06-22T03:41:06;19.30;99.90
74488;DHT22;63019;51.080;13.642;2023-06-22T03:42:08;19.40;99.90
74488;DHT22;63019;51.080;13.642;2023-06-22T03:43:10;19.50;99.90
74488;DHT22;63019;51.080;13.642;2023-06-22T03:44:12;19.50;99.90
74488;DHT22;63019;51.080;13.642;2023-06-22T03:45:14;19.50;99.90
74488;DHT22;63019;51.080;13.642;2023-06-22T03:46:16;19.50;99.90
74488;DHT22;63019;51.080;13.642;2023-06-22T03:47:18;19.50;99.90
74488;DHT22;63019;51.080;13.642;2023-06-22T03:48:19;19.50;99.90
74488;DHT22;63019;51.080;13.642;2023-06-22T03:49:21;19.50;99.90
74488;DHT22;63019;51.080;13.642;2023-06-22T03:50:23;19.50;99.90
74488;DHT22;63019;51.080;13.642;2023-06-22T03:51:25;19.50;99.90
74488;DHT22;63019;51.080;13.642;2023-06-22T03:52:27;19.50;99.90
74488;DHT22;63019;51.080;13.642;2023-06-22T03:53:29;19.50;99.90
74488;DHT22;63019;51.080;13.642;2023-06-22T03:54:31;19.50;99.90
74488;DHT22;63019;51.080;13.642;2023-06-22T03:55:34;19.50;99.90
74488;DHT22;63019;51.080;13.642;2023-06-22T03:56:35;19.50;99.90
74488;DHT22;63019;51.080;13.642;2023-06-22T03:57:38;19.50;99.90
74488;DHT22;63019;51.080;13.642;2023-06-22T03:58:40;19.50;99.90
74488;DHT22;63019;51.080;13.642;2023-06-22T03:59:44;19.50;99.90
74488;DHT22;63019;51.080;13.642;2023-06-22T04:00:47;19.50;99.90
74488;DHT22;63019;51.080;13.642;2023-06-22T04:01:49;19.60;99.90
74488;DHT22;63019;51.080;13.642;2023-06-22T04:02:52;19.60;99.90
74488;DHT22;63019;51.080;13.642;2023-06-22T04:03:54;19.60;99.90
74488;DHT22;63019;51.080;13.642;2023-06-22T04:04:55;19.60;99.90
74488;DHT22;63019;51.080;13.642;2023-06-22T04:05:57;19.70;99.90
74488;DHT22;63019;51.080;13.642;2023-06-22T04:06:59;19.70;99.90
74488;DHT22;63019;51.080;13.642;2023-06-22T04:08:01;19.70;99.90
74488;DHT22;63019;51.080;13.642;2023-06-22T04:09:03;19.70;99.90
74488;DHT22;63019;51.080;13.642;2023-06-22T04:10:05;19.70;99.90
74488;DHT22;63019;51.080;13.642;2023-06-22T04:11:07;19.70;99.90
74488;DHT22;63019;51.080;13.642;2023-06-22T04:12:09;19.80;99.90
74488;DHT22;63019;51.080;13.642;2023-06-22T04:13:11;19.80;99.90
74488;DHT22;63019;51.080;13.642;2023-06-22T04:14:13;19.90;99.90
74488;DHT22;63019;51.080;13.642;2023-06-22T04:15:14;19.90;99.90
74488;DHT22;63019;51.080;13.642;2023-06-22T04:16:16;19.90;99.90
74488;DHT22;63019;51.080;13.642;2023-06-22T04:17:18;19.90;99.90
74488;DHT22;63019;51.080;13.642;2023-06-22T04:18:20;19.90;99.90
74488;DHT22;63019;51.080;13.642;2023-06-22T04:19:22;19.90;99.90
74488;DHT22;63019;51.080;13.642;2023-06-22T04:20:24;19.90;99.90
74488;DHT22;63019;51.080;13.642;2023-06-22T04:21:31;20.00;99.90
74488;DHT22;63019;51.080;13.642;2023-06-22T04:22:33;19.90;99.90
74488;DHT22;63019;51.080;13.642;2023-06-22T04:23:35;19.90;99.90
74488;DHT22;63019;51.080;13.642;2023-06-22T04:24:36;19.90;99.90
74488;DHT22;63019;51.080;13.642;2023-06-22T04:25:39;19.90;99.90
74488;DHT22;63019;51.080;13.642;2023-06-22T04:26:41;19.90;99.90
74488;DHT22;63019;51.080;13.642;2023-06-22T04:27:43;19.90;99.90
74488;DHT22;63019;51.080;13.642;2023-06-22T04:28:47;19.90;99.90
74488;DHT22;63019;51.080;13.642;2023-06-22T04:29:53;19.90;99.90
74488;DHT22;63019;51.080;13.642;2023-06-22T04:30:55;20.00;99.90
74488;DHT22;63019;51.080;13.642;2023-06-22T04:32:04;19.90;99.90
74488;DHT22;63019;51.080;13.642;2023-06-22T04:33:07;20.00;99.90
74488;DHT22;63019;51.080;13.642;2023-06-22T04:34:09;20.00;99.90
74488;DHT22;63019;51.080;13.642;2023-06-22T04:35:11;20.00;99.90
74488;DHT22;63019;51.080;13.642;2023-06-22T04:36:13;20.00;99.90
74488;DHT22;63019;51.080;13.642;2023-06-22T04:37:15;20.00;99.90
74488;DHT22;63019;51.080;13.642;2023-06-22T04:38:17;20.00;99.90
74488;DHT22;63019;51.080;13.642;2023-06-22T04:39:19;20.00;99.90
74488;DHT22;63019;51.080;13.642;2023-06-22T04:40:22;20.10;99.90
74488;DHT22;63019;51.080;13.642;2023-06-22T04:41:24;20.10;99.90
74488;DHT22;63019;51.080;13.642;2023-06-22T04:42:27;20.20;99.90
74488;DHT22;63019;51.080;13.642;2023-06-22T04:43:28;20.20;99.90
74488;DHT22;63019;51.080;13.642;2023-06-22T04:44:32;20.20;99.90
74488;DHT22;63019;51.080;13.642;2023-06-22T04:45:34;20.20;99.90
74488;DHT22;63019;51.080;13.642;2023-06-22T04:46:39;20.30;99.90
74488;DHT22;63019;51.080;13.642;2023-06-22T04:47:41;20.30;99.90
74488;DHT22;63019;51.080;13.642;2023-06-22T04:48:43;20.30;99.90
74488;DHT22;63019;51.080;13.642;2023-06-22T04:49:45;20.30;99.90
74488;DHT22;63019;51.080;13.642;2023-06-22T04:50:48;20.30;99.90
74488;DHT22;63019;51.080;13.642;2023-06-22T04:51:49;20.40;99.90
74488;DHT22;63019;51.080;13.642;2023-06-22T04:52:53;20.40;99.90
74488;DHT22;63019;51.080;13.642;2023-06-22T04:53:55;20.40;99.90
74488;DHT22;63019;51.080;13.642;2023-06-22T04:55:02;20.40;99.90
74488;DHT22;63019;51.080;13.642;2023-06-22T04:56:05;20.50;99.90
74488;DHT22;63019;51.080;13.642;2023-06-22T04:57:07;20.50;99.90
74488;DHT22;63019;51.080;13.642;2023-06-22T04:58:12;20.60;99.90
74488;DHT22;63019;51.080;13.642;2023-06-22T04:59:15;20.60;99.90
74488;DHT22;63019;51.080;13.642;2023-06-22T05:00:18;20.60;99.90
74488;DHT22;63019;51.080;13.642;2023-06-22T05:01:21;20.60;99.90
74488;DHT22;63019;51.080;13.642;2023-06-22T05:02:24;20.60;99.90
74488;DHT22;63019;51.080;13.642;2023-06-22T05:03:29;20.60;99.90
74488;DHT22;63019;51.080;13.642;2023-06-22T05:04:32;20.70;99.90
74488;DHT22;63019;51.080;13.642;2023-06-22T05:05:34;20.70;99.90
74488;DHT22;63019;51.080;13.642;2023-06-22T05:06:36;20.70;99.90
74488;DHT22;63019;51.080;13.642;2023-06-22T05:07:43;20.70;99.90
74488;DHT22;63019;51.080;13.642;2023-06-22T05:08:46;20.70;99.90
74488;DHT22;63019;51.080;13.642;2023-06-22T05:09:48;20.70;99.90
74488;DHT22;63019;51.080;13.642;2023-06-22T05:10:50;20.70;99.90
74488;DHT22;63019;51.080;13.642;2023-06-22T05:12:06;20.80;99.90
74488;DHT22;63019;51.080;13.642;2023-06-22T05:13:11;20.80;99.90
74488;DHT22;63019;51.080;13.642;2023-06-22T05:14:13;20.80;99.90
74488;DHT22;63019;51.080;13.642;2023-06-22T05:15:15;20.90;99.90
74488;DHT22;63019;51.080;13.642;2023-06-22T05:16:17;20.90;99.90
74488;DHT22;63019;51.080;13.642;2023-06-22T05:17:23;20.90;99.90
74488;DHT22;63019;51.080;13.642;2023-06-22T05:18:25;20.90;99.90
74488;DHT22;63019;51.080;13.642;2023-06-22T05:19:27;21.00;99.90
74488;DHT22;63019;51.080;13.642;2023-06-22T05:20:35;21.00;99.90
74488;DHT22;63019;51.080;13.642;2023-06-22T05:21:38;21.00;99.90
74488;DHT22;63019;51.080;13.642;2023-06-22T05:22:40;21.00;99.90
74488;DHT22;63019;51.080;13.642;2023-06-22T05:23:42;21.00;99.90
74488;DHT22;63019;51.080;13.642;2023-06-22T05:24:44;21.00;99.90
74488;DHT22;63019;51.080;13.642;2023-06-22T05:25:46;21.10;99.90
74488;DHT22;63019;51.080;13.642;2023-06-22T05:26:48;21.10;99.90
74488;DHT22;63019;51.080;13.642;2023-06-22T05:27:50;21.00;99.90
74488;DHT22;63019;51.080;13.642;2023-06-22T05:28:53;21.10;99.90
74488;DHT22;63019;51.080;13.642;2023-06-22T05:29:55;21.10;99.90
74488;DHT22;63019;51.080;13.642;2023-06-22T05:30:57;21.10;99.90
74488;DHT22;63019;51.080;13.642;2023-06-22T05:31:59;21.20;99.90
74488;DHT22;63019;51.080;13.642;2023-06-22T05:33:01;21.20;99.90
74488;DHT22;63019;51.080;13.642;2023-06-22T05:34:02;21.20;99.90
74488;DHT22;63019;51.080;13.642;2023-06-22T05:35:05;21.30;99.90
74488;DHT22;63019;51.080;13.642;2023-06-22T05:36:07;21.30;99.90
74488;DHT22;63019;51.080;13.642;2023-06-22T05:37:09;21.40;99.90
74488;DHT22;63019;51.080;13.642;2023-06-22T05:38:11;21.40;99.90
74488;DHT22;63019;51.080;13.642;2023-06-22T05:39:14;21.40;99.90
74488;DHT22;63019;51.080;13.642;2023-06-22T05:40:16;21.40;99.90
74488;DHT22;63019;51.080;13.642;2023-06-22T05:41:19;21.50;99.90
74488;DHT22;63019;51.080;13.642;2023-06-22T05:42:21;21.50;99.90
74488;DHT22;63019;51.080;13.642;2023-06-22T05:43:23;21.50;99.90
74488;DHT22;63019;51.080;13.642;2023-06-22T05:44:25;21.50;99.90
74488;DHT22;63019;51.080;13.642;2023-06-22T05:45:27;21.60;99.90
74488;DHT22;63019;51.080;13.642;2023-06-22T05:46:29;21.60;99.90
74488;DHT22;63019;51.080;13.642;2023-06-22T05:47:30;21.60;99.90
74488;DHT22;63019;51.080;13.642;2023-06-22T05:48:32;21.60;99.90
74488;DHT22;63019;51.080;13.642;2023-06-22T05:49:34;21.70;99.90
74488;DHT22;63019;51.080;13.642;2023-06-22T05:50:37;21.70;99.90
74488;DHT22;63019;51.080;13.642;2023-06-22T05:51:39;21.70;99.90
74488;DHT22;63019;51.080;13.642;2023-06-22T05:52:41;21.80;99.90
74488;DHT22;63019;51.080;13.642;2023-06-22T05:53:43;21.70;99.90
74488;DHT22;63019;51.080;13.642;2023-06-22T05:54:46;21.80;99.90
74488;DHT22;63019;51.080;13.642;2023-06-22T05:55:48;21.80;99.90
74488;DHT22;63019;51.080;13.642;2023-06-22T05:56:49;21.90;99.90
74488;DHT22;63019;51.080;13.642;2023-06-22T05:57:51;21.90;99.90
74488;DHT22;63019;51.080;13.642;2023-06-22T05:58:53;21.90;99.90
74488;DHT22;63019;51.080;13.642;2023-06-22T05:59:55;22.00;99.90
74488;DHT22;63019;51.080;13.642;2023-06-22T06:00:57;22.00;99.90
74488;DHT22;63019;51.080;13.642;2023-06-22T06:01:59;22.10;99.90
74488;DHT22;63019;51.080;13.642;2023-06-22T06:03:01;22.10;99.90
74488;DHT22;63019;51.080;13.642;2023-06-22T06:04:06;22.20;99.90
74488;DHT22;63019;51.080;13.642;2023-06-22T06:05:11;22.20;99.90
74488;DHT22;63019;51.080;13.642;2023-06-22T06:06:15;22.30;99.90
74488;DHT22;63019;51.080;13.642;2023-06-22T06:07:18;22.30;99.90
74488;DHT22;63019;51.080;13.642;2023-06-22T06:08:19;22.40;99.90
74488;DHT22;63019;51.080;13.642;2023-06-22T06:09:21;22.40;99.90
74488;DHT22;63019;51.080;13.642;2023-06-22T06:10:23;22.40;99.90
74488;DHT22;63019;51.080;13.642;2023-06-22T06:11:25;22.50;99.90
74488;DHT22;63019;51.080;13.642;2023-06-22T06:12:27;22.60;99.90
74488;DHT22;63019;51.080;13.642;2023-06-22T06:13:29;22.60;99.90
74488;DHT22;63019;51.080;13.642;2023-06-22T06:14:31;22.70;99.90
74488;DHT22;63019;51.080;13.642;2023-06-22T06:15:35;22.70;99.90
74488;DHT22;63019;51.080;13.642;2023-06-22T06:16:37;22.80;99.90
74488;DHT22;63019;51.080;13.642;2023-06-22T06:17:46;22.90;99.90
74488;DHT22;63019;51.080;13.642;2023-06-22T06:18:48;22.90;99.90
74488;DHT22;63019;51.080;13.642;2023-06-22T06:19:52;23.10;99.90
74488;DHT22;63019;51.080;13.642;2023-06-22T06:20:54;23.20;99.90
74488;DHT22;63019;51.080;13.642;2023-06-22T06:21:56;23.30;99.90
74488;DHT22;63019;51.080;13.642;2023-06-22T06:22:58;23.40;99.90
74488;DHT22;63019;51.080;13.642;2023-06-22T06:24:00;23.50;99.90
74488;DHT22;63019;51.080;13.642;2023-06-22T06:25:02;23.50;99.90
74488;DHT22;63019;51.080;13.642;2023-06-22T06:26:03;23.60;99.90
74488;DHT22;63019;51.080;13.642;2023-06-22T06:27:08;23.60;99.90
74488;DHT22;63019;51.080;13.642;2023-06-22T06:28:10;23.60;99.90
74488;DHT22;63019;51.080;13.642;2023-06-22T06:29:12;23.70;99.90
74488;DHT22;63019;51.080;13.642;2023-06-22T06:30:15;23.70;99.90
74488;DHT22;63019;51.080;13.642;2023-06-22T06:31:17;23.80;99.90
74488;DHT22;63019;51.080;13.642;2023-06-22T06:32:19;23.80;99.90
74488;DHT22;63019;51.080;13.642;2023-06-22T06:33:21;23.80;99.90
74488;DHT22;63019;51.080;13.642;2023-06-22T06:34:26;23.80;99.90
74488;DHT22;63019;51.080;13.642;2023-06-22T06:35:28;23.80;99.90
74488;DHT22;63019;51.080;13.642;2023-06-22T06:36:31;23.80;99.90
74488;DHT22;63019;51.080;13.642;2023-06-22T06:37:36;23.80;99.90
74488;DHT22;63019;51.080;13.642;2023-06-22T06:38:39;23.90;99.90
74488;DHT22;63019;51.080;13.642;2023-06-22T06:39:40;23.90;99.90
74488;DHT22;63019;51.080;13.642;2023-06-22T06:40:45;23.90;99.90